Tuckerman, Arkansas
Current Conditions -  °F | °C
As of 4:56 PM on Saturday 20 Dec 2014 (Local Time) from KM19 Reporting Station
Scattered Clouds Scattered Clouds  
Wind Chill: 42°   Ceiling: Unl
Heat Index: 42°   Visibility: 10mi
Dew Point: 37°   Wind: 3mph
Humidity: 82%   Direction: 10°N
Pressure: 30.25"   Gusts: NA
Location:  35.73°N, 91.2°W
Report Text: KM19 202256Z AUTO 01003KT 10SM SCT050 06/03 A3025 RMK AO2 T00550027 SLP244
Loading
Personal Weather Stations






























Interactive Weather Map New forecast layout! Learn more

10-Day Weather Forecast

Advertisements
Track Severe Weather on mobile